Terminal Aerodrome Forecast
Issued by NWS

Home | Current Version | Previous Version | Text Only | Print | Product List | Glossary On
Versions: 1 2 3 4 5 6 7 8 9 10 11 12 13 14 15
000
FTUS44 KJAN 281120
TAFHKS
TAF
KHKS 281120Z 2812/2912 13004KT P6SM FEW020 SCT040 BKN200
     FM281700 16010KT P6SM VCTS SCT030 BKN050CB
     FM290100 16003KT P6SM FEW050 BKN250
     FM291000 VRB03KT 5SM BR FEW009=

USA.gov is the U.S. government's official web portal to all federal, state and local government web resources and services.